createdAt,value
2022-09-24T00:00:11.690Z,90.08
2022-09-24T00:01:15.839Z,90.08
2022-09-24T00:02:11.765Z,90.18
2022-09-24T00:03:11.726Z,89.97
2022-09-24T00:04:11.867Z,89.97
2022-09-24T00:05:11.623Z,90.08
2022-09-24T00:06:11.599Z,90.28
2022-09-24T00:07:11.607Z,90.38
2022-09-24T00:08:11.567Z,90.59
2022-09-24T00:09:11.581Z,90.69
2022-09-24T00:10:11.588Z,90.59
2022-09-24T00:11:11.547Z,90.38
2022-09-24T00:12:11.552Z,90.28
2022-09-24T00:13:11.528Z,90.38
2022-09-24T00:14:11.617Z,90.48
2022-09-24T00:15:11.510Z,90.48
2022-09-24T00:16:11.553Z,90.38
2022-09-24T00:17:11.492Z,90.38
2022-09-24T00:18:11.478Z,90.08
2022-09-24T00:19:11.469Z,89.67
2022-09-24T00:20:11.442Z,88.96
2022-09-24T00:21:11.447Z,88.51
2022-09-24T00:22:11.438Z,88.31
2022-09-24T00:23:11.420Z,88.10
2022-09-24T00:24:11.504Z,88.40
2022-09-24T00:25:11.466Z,89.01
2022-09-24T00:26:11.382Z,89.22
2022-09-24T00:27:11.399Z,89.73
2022-09-24T00:28:11.360Z,89.53
2022-09-24T00:29:11.353Z,89.42
2022-09-24T00:30:11.329Z,89.32
2022-09-24T00:31:11.360Z,89.12
2022-09-24T00:32:11.391Z,88.92
2022-09-24T00:33:11.303Z,88.81
2022-09-24T00:34:11.428Z,88.40
2022-09-24T00:35:11.286Z,88.61
2022-09-24T00:36:11.272Z,88.81
2022-09-24T00:37:11.272Z,89.01
2022-09-24T00:38:11.241Z,88.71
2022-09-24T00:39:11.242Z,87.08
2022-09-24T00:40:11.284Z,86.47
2022-09-24T00:41:11.212Z,86.37
2022-09-24T00:42:11.192Z,86.47
2022-09-24T00:43:11.199Z,86.33
2022-09-24T00:44:11.255Z,86.43
2022-09-24T00:45:11.172Z,86.43
2022-09-24T00:46:11.209Z,85.61
2022-09-24T00:47:11.187Z,85.61
2022-09-24T00:48:11.143Z,85.82
2022-09-24T00:49:11.124Z,85.31
2022-09-24T00:50:11.104Z,85.31
2022-09-24T00:51:11.103Z,85.41
2022-09-24T00:52:11.079Z,85.82
2022-09-24T00:53:11.084Z,85.51
2022-09-24T00:54:11.112Z,85.51
2022-09-24T00:55:11.072Z,85.21
2022-09-24T00:56:11.045Z,85.00
2022-09-24T00:57:11.031Z,85.00
2022-09-24T00:58:11.003Z,84.70
2022-09-24T00:59:11.024Z,85.72
2022-09-24T01:00:10.997Z,85.51
2022-09-24T01:01:11.126Z,85.51
2022-09-24T01:02:11.033Z,85.72
2022-09-24T01:03:10.983Z,85.72
2022-09-24T01:04:11.232Z,85.82
2022-09-24T01:05:10.944Z,86.13
2022-09-24T01:06:10.926Z,87.04
2022-09-24T01:07:10.924Z,87.14
2022-09-24T01:08:10.906Z,87.35
2022-09-24T01:09:10.909Z,87.55
2022-09-24T01:10:10.883Z,87.49
2022-09-24T01:11:10.876Z,87.69
2022-09-24T01:12:10.884Z,88.61
2022-09-24T01:13:10.848Z,89.12
2022-09-24T01:14:10.853Z,89.73
2022-09-24T01:15:10.839Z,90.14
2022-09-24T01:16:10.866Z,90.55
2022-09-24T01:17:10.805Z,90.75
2022-09-24T01:18:10.788Z,90.55
2022-09-24T01:19:10.805Z,90.24
2022-09-24T01:20:10.788Z,90.24
2022-09-24T01:21:11.704Z,90.34
2022-09-24T01:22:10.736Z,89.01
2022-09-24T01:23:10.739Z,88.81
2022-09-24T01:24:10.755Z,89.32
2022-09-24T01:25:10.707Z,89.73
2022-09-24T01:26:10.706Z,89.83
2022-09-24T01:27:10.716Z,89.73
2022-09-24T01:28:10.677Z,89.53
2022-09-24T01:29:10.668Z,89.53
2022-09-24T01:30:10.648Z,89.63
2022-09-24T01:31:10.737Z,89.42
2022-09-24T01:32:10.629Z,89.73
2022-09-24T01:33:10.629Z,89.73
2022-09-24T01:34:10.703Z,89.83
2022-09-24T01:35:10.609Z,90.34
2022-09-24T01:36:10.597Z,90.44
2022-09-24T01:37:10.576Z,90.64
2022-09-24T01:38:10.577Z,91.05
2022-09-24T01:39:10.556Z,91.16
2022-09-24T01:40:10.564Z,91.20
2022-09-24T01:41:10.720Z,91.40
2022-09-24T01:42:10.511Z,91.50
2022-09-24T01:43:10.528Z,91.50
2022-09-24T01:44:10.549Z,91.40
2022-09-24T01:45:10.496Z,91.30
2022-09-24T01:46:10.520Z,91.20
2022-09-24T01:47:10.469Z,90.18
2022-09-24T01:48:10.450Z,89.57
2022-09-24T01:49:10.448Z,88.92
2022-09-24T01:50:10.429Z,89.01
2022-09-24T01:51:10.423Z,88.61
2022-09-24T01:52:10.436Z,87.59
2022-09-24T01:53:10.408Z,87.69
2022-09-24T01:54:10.439Z,87.79
2022-09-24T01:55:10.368Z,87.79
2022-09-24T01:56:10.352Z,87.69
2022-09-24T01:57:10.381Z,87.59
2022-09-24T01:58:10.343Z,87.08
2022-09-24T01:59:10.348Z,87.08
2022-09-24T02:00:10.308Z,86.74
2022-09-24T02:01:11.330Z,87.04
2022-09-24T02:02:10.315Z,86.74
2022-09-24T02:03:10.301Z,86.63
2022-09-24T02:04:10.272Z,86.53
2022-09-24T02:05:10.261Z,86.53
2022-09-24T02:06:10.253Z,86.74
2022-09-24T02:07:10.237Z,86.63
2022-09-24T02:08:10.225Z,86.74
2022-09-24T02:09:10.233Z,86.53
2022-09-24T02:10:10.210Z,86.43
2022-09-24T02:11:10.193Z,86.57
2022-09-24T02:12:10.202Z,86.77
2022-09-24T02:13:10.174Z,87.08
2022-09-24T02:14:10.229Z,86.98
2022-09-24T02:15:10.153Z,87.29
2022-09-24T02:16:10.167Z,87.38
2022-09-24T02:17:10.122Z,87.29
2022-09-24T02:18:10.104Z,87.49
2022-09-24T02:19:10.114Z,87.49
2022-09-24T02:20:10.102Z,87.90
2022-09-24T02:21:10.105Z,88.00
2022-09-24T02:22:10.062Z,87.79
2022-09-24T02:23:10.078Z,87.59
2022-09-24T02:24:10.063Z,87.38
2022-09-24T02:25:10.068Z,87.08
2022-09-24T02:26:10.039Z,86.98
2022-09-24T02:27:10.033Z,86.88
2022-09-24T02:28:10.010Z,86.98
2022-09-24T02:29:10.023Z,86.98
2022-09-24T02:30:09.971Z,87.08
2022-09-24T02:31:10.085Z,87.29
2022-09-24T02:32:09.957Z,86.98
2022-09-24T02:33:09.952Z,87.18
2022-09-24T02:34:09.926Z,87.08
2022-09-24T02:35:09.926Z,87.18
2022-09-24T02:36:09.914Z,87.49
2022-09-24T02:37:09.902Z,87.38
2022-09-24T02:38:09.974Z,87.59
2022-09-24T02:39:09.874Z,87.38
2022-09-24T02:40:09.911Z,87.69
2022-09-24T02:41:09.866Z,87.90
2022-09-24T02:42:09.833Z,88.00
2022-09-24T02:43:09.835Z,87.79
2022-09-24T02:44:09.813Z,87.90
2022-09-24T02:45:09.807Z,88.00
2022-09-24T02:46:09.812Z,88.00
2022-09-24T02:47:09.806Z,88.10
2022-09-24T02:48:09.781Z,88.71
2022-09-24T02:49:09.754Z,88.92
2022-09-24T02:50:09.754Z,88.81
2022-09-24T02:51:09.749Z,89.01
2022-09-24T02:52:09.738Z,89.22
2022-09-24T02:53:09.723Z,89.53
2022-09-24T02:54:09.732Z,89.73
2022-09-24T02:55:09.706Z,89.94
2022-09-24T02:56:09.688Z,90.44
2022-09-24T02:57:09.679Z,90.64
2022-09-24T02:58:09.666Z,90.85
2022-09-24T02:59:09.638Z,91.16
2022-09-24T03:00:09.646Z,91.56
2022-09-24T03:01:09.629Z,91.77
2022-09-24T03:02:09.750Z,92.07
2022-09-24T03:03:09.686Z,92.18
2022-09-24T03:04:09.728Z,92.27
2022-09-24T03:05:09.586Z,92.68
2022-09-24T03:06:09.586Z,93.29
2022-09-24T03:07:09.570Z,93.74
2022-09-24T03:08:09.538Z,93.64
2022-09-24T03:09:09.533Z,93.74
2022-09-24T03:10:09.590Z,93.95
2022-09-24T03:11:09.518Z,94.56
2022-09-24T03:12:09.511Z,94.97
2022-09-24T03:13:09.478Z,95.37
2022-09-24T03:14:09.547Z,95.48
2022-09-24T03:15:09.458Z,95.58
2022-09-24T03:16:09.545Z,95.89
2022-09-24T03:17:09.447Z,95.98
2022-09-24T03:18:09.431Z,96.09
2022-09-24T03:19:09.421Z,96.19
2022-09-24T03:20:09.429Z,96.39
2022-09-24T03:21:09.399Z,96.44
2022-09-24T03:22:09.439Z,96.54
2022-09-24T03:23:09.363Z,96.64
2022-09-24T03:24:09.424Z,96.75
2022-09-24T03:25:09.348Z,96.95
2022-09-24T03:26:09.351Z,97.16
2022-09-24T03:27:09.340Z,97.36
2022-09-24T03:28:09.319Z,97.36
2022-09-24T03:29:09.299Z,97.36
2022-09-24T03:30:09.315Z,97.36
2022-09-24T03:31:09.370Z,97.36
2022-09-24T03:32:09.300Z,97.46
2022-09-24T03:33:09.259Z,97.56
2022-09-24T03:34:09.317Z,97.66
2022-09-24T03:35:09.234Z,97.77
2022-09-24T03:36:09.236Z,97.77
2022-09-24T03:37:09.219Z,97.87
2022-09-24T03:38:09.267Z,97.87
2022-09-24T03:39:09.191Z,98.07
2022-09-24T03:40:09.288Z,98.07
2022-09-24T03:41:09.179Z,98.07
2022-09-24T03:42:09.171Z,98.07
2022-09-24T03:43:09.157Z,98.27
2022-09-24T03:44:09.259Z,98.38
2022-09-24T03:45:09.131Z,98.68
2022-09-24T03:46:09.266Z,98.79
2022-09-24T03:47:09.111Z,98.58
2022-09-24T03:48:09.144Z,98.48
2022-09-24T03:49:09.072Z,98.68
2022-09-24T03:50:09.105Z,98.68
2022-09-24T03:51:09.064Z,98.79
2022-09-24T03:52:09.064Z,98.89
2022-09-24T03:53:09.031Z,98.89
2022-09-24T03:54:09.110Z,98.79
2022-09-24T03:55:09.003Z,98.89
2022-09-24T03:56:09.003Z,98.99
2022-09-24T03:57:09.015Z,98.89
2022-09-24T03:58:09.003Z,98.99
2022-09-24T03:59:08.966Z,99.09
2022-09-24T04:00:08.959Z,99.19
2022-09-24T04:01:08.969Z,99.29
2022-09-24T04:02:09.078Z,99.29
2022-09-24T04:03:08.961Z,99.29
2022-09-24T04:04:08.948Z,99.29
2022-09-24T04:05:08.889Z,99.29
2022-09-24T04:06:08.893Z,99.29
2022-09-24T04:07:08.895Z,99.29
2022-09-24T04:08:08.886Z,99.40
2022-09-24T04:09:08.843Z,99.40
2022-09-24T04:10:08.855Z,99.40
2022-09-24T04:11:08.850Z,99.80
2022-09-24T04:12:08.839Z,99.91
2022-09-24T04:13:08.823Z,99.99
2022-09-24T04:14:08.853Z,99.99
2022-09-24T04:15:08.784Z,99.99
2022-09-24T04:16:08.849Z,99.99
2022-09-24T04:17:08.767Z,99.99
2022-09-24T04:18:08.779Z,99.99
2022-09-24T04:19:08.743Z,99.99
2022-09-24T04:20:08.736Z,99.99
2022-09-24T04:21:08.716Z,99.99
2022-09-24T04:22:08.718Z,99.99
2022-09-24T04:23:08.715Z,99.99
2022-09-24T04:24:08.723Z,99.99
2022-09-24T04:25:13.985Z,99.99
2022-09-24T04:26:09.688Z,99.99
2022-09-24T04:27:08.648Z,99.99
2022-09-24T04:28:08.648Z,99.99
2022-09-24T04:29:08.629Z,99.99
2022-09-24T04:30:08.876Z,99.99
2022-09-24T04:31:08.673Z,99.99
2022-09-24T04:32:08.596Z,99.99
2022-09-24T04:33:08.613Z,99.99
2022-09-24T04:34:08.637Z,99.99
2022-09-24T04:35:08.556Z,99.99
2022-09-24T04:36:08.556Z,99.99
2022-09-24T04:37:08.536Z,99.99
2022-09-24T04:38:08.546Z,99.99
2022-09-24T04:40:18.416Z,99.99
2022-09-24T04:41:18.425Z,99.99
2022-09-24T04:42:18.330Z,99.99
2022-09-24T04:43:18.332Z,99.99
2022-09-24T04:44:18.317Z,99.99
2022-09-24T04:45:18.321Z,99.99
2022-09-24T04:46:18.314Z,99.99
2022-09-24T04:47:18.281Z,99.99
2022-09-24T04:48:18.324Z,99.99
2022-09-24T04:49:18.253Z,99.99
2022-09-24T04:50:18.252Z,99.99
2022-09-24T04:51:18.232Z,99.99
2022-09-24T04:52:18.217Z,99.99
2022-09-24T04:53:18.272Z,99.99
2022-09-24T04:54:18.198Z,99.99
2022-09-24T04:55:18.213Z,99.99
2022-09-24T04:56:18.167Z,99.99
2022-09-24T04:57:18.168Z,99.99
2022-09-24T04:58:18.145Z,99.99
2022-09-24T04:59:18.145Z,99.99
2022-09-24T05:00:18.157Z,99.99
2022-09-24T05:01:18.213Z,99.99
2022-09-24T05:02:18.223Z,99.99
2022-09-24T05:03:18.179Z,99.99
2022-09-24T05:04:18.084Z,99.99
2022-09-24T05:05:18.085Z,99.99
2022-09-24T05:06:18.073Z,99.99
2022-09-24T05:07:18.064Z,99.99
2022-09-24T05:08:18.037Z,99.99
2022-09-24T05:09:18.301Z,99.99
2022-09-24T05:10:18.012Z,99.99
2022-09-24T05:11:18.032Z,99.99
2022-09-24T05:12:17.996Z,99.99
2022-09-24T05:13:17.984Z,99.99
2022-09-24T05:14:17.965Z,99.99
2022-09-24T05:15:17.965Z,99.99
2022-09-24T05:16:18.005Z,99.99
2022-09-24T05:17:17.951Z,99.99
2022-09-24T05:18:17.928Z,99.99
2022-09-24T05:19:17.917Z,99.99
2022-09-24T05:20:17.897Z,99.99
2022-09-24T05:21:17.897Z,99.99
2022-09-24T05:22:17.897Z,99.99
2022-09-24T05:23:17.897Z,99.99
2022-09-24T05:24:17.857Z,99.99
2022-09-24T05:25:17.857Z,99.99
2022-09-24T05:26:17.860Z,99.99
2022-09-24T05:27:17.837Z,99.99
2022-09-24T05:28:17.834Z,99.99
2022-09-24T05:29:17.837Z,99.99
2022-09-24T05:30:17.846Z,99.99
2022-09-24T05:31:17.940Z,99.99
2022-09-24T05:32:17.808Z,99.99
2022-09-24T05:33:17.878Z,99.99
2022-09-24T05:34:17.811Z,99.99
2022-09-24T05:35:17.928Z,99.99
2022-09-24T05:36:17.853Z,99.99
2022-09-24T05:37:17.837Z,99.99
2022-09-24T05:38:17.891Z,99.99
2022-09-24T05:39:17.815Z,99.99
2022-09-24T05:40:18.009Z,99.99
2022-09-24T05:41:17.848Z,99.99
2022-09-24T05:42:17.658Z,99.99
2022-09-24T05:43:17.871Z,99.99
2022-09-24T05:44:17.683Z,99.99
2022-09-24T05:45:17.722Z,99.99
2022-09-24T05:46:17.653Z,99.99
2022-09-24T05:47:17.911Z,99.99
2022-09-24T05:48:17.610Z,99.99
2022-09-24T05:49:17.601Z,99.99
2022-09-24T05:50:17.582Z,99.99
2022-09-24T05:51:17.769Z,99.99
2022-09-24T05:52:17.659Z,99.99
2022-09-24T05:53:17.683Z,99.99
2022-09-24T05:54:17.905Z,99.99
2022-09-24T05:55:17.689Z,99.99
2022-09-24T05:56:17.908Z,99.99
2022-09-24T05:57:18.390Z,99.99
2022-09-24T05:58:17.947Z,99.99
2022-09-24T05:59:17.742Z,99.99
2022-09-24T06:00:17.722Z,99.99
2022-09-24T06:01:17.730Z,99.99
2022-09-24T06:02:17.823Z,99.99
2022-09-24T06:03:17.535Z,99.99
2022-09-24T06:04:17.446Z,99.99
2022-09-24T06:05:17.411Z,99.99
2022-09-24T06:06:17.422Z,99.99
2022-09-24T06:07:17.392Z,99.99
2022-09-24T06:08:17.396Z,99.99
2022-09-24T06:09:17.367Z,99.99
2022-09-24T06:10:17.382Z,99.99
2022-09-24T06:11:17.339Z,99.99
2022-09-24T06:12:17.329Z,99.99
2022-09-24T06:13:17.377Z,99.99
2022-09-24T06:14:17.305Z,99.99
2022-09-24T06:15:17.311Z,99.99
2022-09-24T06:16:17.347Z,99.99
2022-09-24T06:17:17.502Z,99.99
2022-09-24T06:18:17.264Z,99.99
2022-09-24T06:19:17.243Z,99.99
2022-09-24T06:20:17.243Z,99.99
2022-09-24T06:21:17.230Z,99.99
2022-09-24T06:22:17.230Z,99.99
2022-09-24T06:23:17.199Z,99.99
2022-09-24T06:24:17.203Z,99.99
2022-09-24T06:25:17.198Z,99.99
2022-09-24T06:26:17.183Z,99.99
2022-09-24T06:27:17.150Z,99.99
2022-09-24T06:28:17.163Z,99.99
2022-09-24T06:29:17.136Z,99.99
2022-09-24T06:30:17.154Z,99.99
2022-09-24T06:31:17.179Z,99.99
2022-09-24T06:32:17.113Z,99.99
2022-09-24T06:33:17.113Z,99.99
2022-09-24T06:34:17.093Z,99.99
2022-09-24T06:35:17.063Z,99.99
2022-09-24T06:36:17.087Z,99.99
2022-09-24T06:37:17.077Z,99.99
2022-09-24T06:38:17.045Z,99.99
2022-09-24T06:39:17.023Z,99.99
2022-09-24T06:40:17.169Z,99.99
2022-09-24T06:41:17.000Z,99.99
2022-09-24T06:42:17.004Z,99.99
2022-09-24T06:43:16.972Z,99.99
2022-09-24T06:44:16.976Z,99.99
2022-09-24T06:45:16.955Z,99.99
2022-09-24T06:46:16.966Z,99.99
2022-09-24T06:47:16.936Z,99.99
2022-09-24T06:48:16.933Z,99.99
2022-09-24T06:49:16.924Z,99.99
2022-09-24T06:50:16.916Z,99.99
2022-09-24T06:51:16.916Z,99.99
2022-09-24T06:52:16.909Z,99.99
2022-09-24T06:53:16.864Z,99.99
2022-09-24T06:54:16.896Z,99.99
2022-09-24T06:55:16.884Z,99.99
2022-09-24T06:56:16.844Z,99.99
2022-09-24T06:57:16.832Z,99.99
2022-09-24T06:58:16.816Z,99.99
2022-09-24T06:59:16.794Z,99.99
2022-09-24T07:00:16.796Z,99.99
2022-09-24T07:01:16.816Z,99.99
2022-09-24T07:02:16.783Z,99.99
2022-09-24T07:03:16.765Z,99.99
2022-09-24T07:04:16.747Z,99.99
2022-09-24T07:05:16.725Z,99.99
2022-09-24T07:06:16.739Z,99.99
2022-09-24T07:07:16.706Z,99.99
2022-09-24T07:08:16.694Z,99.99
2022-09-24T07:09:16.706Z,99.99
2022-09-24T07:10:16.686Z,99.99
2022-09-24T07:11:16.740Z,99.99
2022-09-24T07:12:16.663Z,99.99
2022-09-24T07:13:16.647Z,99.99
2022-09-24T07:14:16.637Z,99.99
2022-09-24T07:15:16.623Z,99.99
2022-09-24T07:16:16.694Z,99.99
2022-09-24T07:17:16.595Z,99.99
2022-09-24T07:18:16.603Z,99.99
2022-09-24T07:19:16.598Z,99.99
2022-09-24T07:20:16.575Z,99.99
2022-09-24T07:21:16.656Z,99.99
2022-09-24T07:22:16.715Z,99.99
2022-09-24T07:23:16.675Z,99.99
2022-09-24T07:24:16.716Z,99.99
2022-09-24T07:25:16.676Z,99.99
2022-09-24T07:26:16.756Z,99.99
2022-09-24T07:27:16.732Z,99.99
2022-09-24T07:28:16.476Z,99.99
2022-09-24T07:29:16.468Z,99.99
2022-09-24T07:30:16.456Z,99.99
2022-09-24T07:31:16.506Z,99.99
2022-09-24T07:32:16.492Z,99.99
2022-09-24T07:33:16.411Z,99.99
2022-09-24T07:34:16.420Z,99.99
2022-09-24T07:35:16.392Z,99.99
2022-09-24T07:36:16.420Z,99.99
2022-09-24T07:37:17.569Z,99.99
2022-09-24T07:38:16.396Z,99.99
2022-09-24T07:39:16.348Z,99.99
2022-09-24T07:40:16.403Z,99.99
2022-09-24T07:41:16.348Z,99.99
2022-09-24T07:42:16.329Z,99.99
2022-09-24T07:43:16.319Z,99.99
2022-09-24T07:44:16.332Z,99.99
2022-09-24T07:45:16.289Z,99.99
2022-09-24T07:46:16.334Z,99.99
2022-09-24T07:47:16.268Z,99.99
2022-09-24T07:48:16.260Z,99.99
2022-09-24T07:49:16.240Z,99.99
2022-09-24T07:50:16.280Z,99.99
2022-09-24T07:51:16.220Z,99.99
2022-09-24T07:52:16.220Z,99.99
2022-09-24T07:53:16.192Z,99.99
2022-09-24T07:54:17.352Z,99.99
2022-09-24T07:55:16.168Z,99.99
2022-09-24T07:56:16.191Z,99.99
2022-09-24T07:57:16.148Z,99.99
2022-09-24T07:58:16.148Z,99.99
2022-09-24T07:59:16.129Z,99.99
2022-09-24T08:00:16.124Z,99.99
2022-09-24T08:01:16.131Z,99.99
2022-09-24T08:02:16.120Z,99.99
2022-09-24T08:03:16.095Z,99.99
2022-09-24T08:04:16.136Z,99.99
2022-09-24T08:05:16.061Z,99.99
2022-09-24T08:06:16.072Z,99.99
2022-09-24T08:07:16.034Z,99.99
2022-09-24T08:08:16.041Z,99.99
2022-09-24T08:09:16.020Z,99.99
2022-09-24T08:10:16.013Z,99.99
2022-09-24T08:11:15.997Z,99.99
2022-09-24T08:12:16.001Z,99.99
2022-09-24T08:13:15.972Z,99.99
2022-09-24T08:14:15.985Z,99.99
2022-09-24T08:15:15.955Z,99.99
2022-09-24T08:16:15.988Z,99.99
2022-09-24T08:17:15.962Z,99.99
2022-09-24T08:18:15.921Z,99.99
2022-09-24T08:19:15.902Z,99.99
2022-09-24T08:20:15.901Z,99.99
2022-09-24T08:21:15.881Z,99.99
2022-09-24T08:22:23.006Z,99.99
2022-09-24T08:23:15.859Z,99.99
2022-09-24T08:24:22.339Z,99.99
2022-09-24T08:25:15.827Z,99.99
2022-09-24T08:26:15.848Z,99.99
2022-09-24T08:27:17.531Z,99.99
2022-09-24T08:28:15.818Z,99.99
2022-09-24T08:29:15.818Z,99.99
2022-09-24T08:30:15.789Z,99.99
2022-09-24T08:31:15.816Z,99.99
2022-09-24T08:32:15.766Z,99.99
2022-09-24T08:33:15.750Z,99.99
2022-09-24T08:34:15.746Z,99.99
2022-09-24T08:35:15.754Z,99.99
2022-09-24T08:36:15.718Z,99.99
2022-09-24T08:37:15.697Z,99.99
2022-09-24T08:38:15.699Z,99.99
2022-09-24T08:39:15.680Z,99.99
2022-09-24T08:40:15.748Z,99.99
2022-09-24T08:41:15.661Z,99.99
2022-09-24T08:42:15.648Z,99.99
2022-09-24T08:43:15.640Z,99.99
2022-09-24T08:44:15.628Z,99.99
2022-09-24T08:45:15.720Z,99.99
2022-09-24T08:46:16.259Z,99.99
2022-09-24T08:47:15.600Z,99.99
2022-09-24T08:48:15.579Z,99.99
2022-09-24T08:49:15.553Z,99.99
2022-09-24T08:50:15.572Z,99.99
2022-09-24T08:51:15.552Z,99.99
2022-09-24T08:52:15.561Z,99.99
2022-09-24T08:53:15.530Z,99.99
2022-09-24T08:54:15.520Z,99.99
2022-09-24T08:55:15.491Z,99.99
2022-09-24T08:56:15.501Z,99.99
2022-09-24T08:57:15.480Z,99.99
2022-09-24T08:58:15.527Z,99.99
2022-09-24T08:59:15.459Z,99.99
2022-09-24T09:00:15.442Z,99.99
2022-09-24T09:01:15.576Z,99.99
2022-09-24T09:02:15.549Z,99.99
2022-09-24T09:03:15.446Z,99.99
2022-09-24T09:04:15.411Z,99.99
2022-09-24T09:05:15.391Z,99.99
2022-09-24T09:06:15.384Z,99.99
2022-09-24T09:07:15.371Z,99.99
2022-09-24T09:08:42.107Z,99.99
2022-09-24T09:09:16.390Z,99.99
2022-09-24T09:10:15.332Z,99.99
2022-09-24T09:11:15.313Z,99.99
2022-09-24T09:12:15.332Z,99.99
2022-09-24T09:13:15.324Z,99.99
2022-09-24T09:14:15.298Z,99.99
2022-09-24T09:15:15.284Z,99.99
2022-09-24T09:16:15.325Z,99.99
2022-09-24T09:17:15.245Z,99.99
2022-09-24T09:18:15.261Z,99.99
2022-09-24T09:19:15.245Z,99.99
2022-09-24T09:20:15.232Z,99.99
2022-09-24T09:21:15.204Z,99.99
2022-09-24T09:22:15.214Z,99.99
2022-09-24T09:23:15.216Z,99.99
2022-09-24T09:24:15.189Z,99.99
2022-09-24T09:25:15.160Z,99.99
2022-09-24T09:26:15.158Z,99.99
2022-09-24T09:27:15.139Z,99.99
2022-09-24T09:28:15.205Z,99.99
2022-09-24T09:29:15.145Z,99.99
2022-09-24T09:30:15.135Z,99.99
2022-09-24T09:31:15.196Z,99.99
2022-09-24T09:32:15.106Z,99.99
2022-09-24T09:33:15.097Z,99.99
2022-09-24T09:34:15.073Z,99.99
2022-09-24T09:35:15.077Z,99.99
2022-09-24T09:36:15.050Z,99.99
2022-09-24T09:37:15.029Z,99.99
2022-09-24T09:38:15.029Z,99.99
2022-09-24T09:39:15.023Z,99.99
2022-09-24T09:40:15.079Z,99.15
2022-09-24T09:41:14.984Z,98.54
2022-09-24T09:42:14.979Z,98.65
2022-09-24T09:43:14.959Z,98.14
2022-09-24T09:44:14.977Z,97.99
2022-09-24T09:45:14.948Z,97.49
2022-09-24T09:46:15.527Z,96.67
2022-09-24T09:47:14.918Z,96.88
2022-09-24T09:48:14.937Z,96.22
2022-09-24T09:49:14.909Z,97.03
2022-09-24T09:50:14.942Z,95.62
2022-09-24T09:51:18.703Z,94.60
2022-09-24T09:52:15.871Z,95.07
2022-09-24T09:53:14.848Z,94.15
2022-09-24T09:54:14.861Z,92.64
2022-09-24T09:55:14.865Z,92.94
2022-09-24T09:56:14.848Z,92.94
2022-09-24T09:57:14.808Z,92.60
2022-09-24T09:58:14.801Z,93.10
2022-09-24T09:59:14.780Z,93.20
2022-09-24T10:00:14.782Z,93.30
2022-09-24T10:01:14.760Z,92.96
2022-09-24T10:02:14.846Z,92.55
2022-09-24T10:03:14.861Z,91.94
2022-09-24T10:04:14.740Z,87.90
2022-09-24T10:05:18.706Z,87.64
2022-09-24T10:06:15.716Z,89.06
2022-09-24T10:07:14.702Z,90.27
2022-09-24T10:08:14.681Z,90.07
2022-09-24T10:09:14.686Z,89.87
2022-09-24T10:10:14.729Z,89.16
2022-09-24T10:11:14.653Z,87.44
2022-09-24T10:12:14.684Z,88.55
2022-09-24T10:13:14.620Z,88.96
2022-09-24T10:14:14.622Z,87.74
2022-09-24T10:15:14.616Z,87.48
2022-09-24T10:16:14.644Z,88.39
2022-09-24T10:17:14.602Z,88.19
2022-09-24T10:18:14.583Z,87.48
2022-09-24T10:19:14.592Z,87.73
2022-09-24T10:20:14.634Z,88.02
2022-09-24T10:21:14.554Z,88.02
2022-09-24T10:22:14.521Z,88.74
2022-09-24T10:23:14.527Z,88.64
2022-09-24T10:24:14.506Z,89.65
2022-09-24T10:25:14.503Z,90.05
2022-09-24T10:26:14.486Z,89.54
2022-09-24T10:27:14.478Z,89.20
2022-09-24T10:28:14.475Z,87.38
2022-09-24T10:29:14.463Z,87.02
2022-09-24T10:30:14.517Z,87.22
2022-09-24T10:31:14.484Z,87.32
2022-09-24T10:32:14.415Z,88.02
2022-09-24T10:33:14.408Z,86.71
2022-09-24T10:34:14.394Z,86.21
2022-09-24T10:35:14.415Z,87.12
2022-09-24T10:36:14.378Z,86.71
2022-09-24T10:37:14.366Z,86.10
2022-09-24T10:38:14.347Z,85.54
2022-09-24T10:39:14.338Z,85.13
2022-09-24T10:40:23.156Z,86.35
2022-09-24T10:41:14.335Z,86.85
2022-09-24T10:42:14.295Z,87.36
2022-09-24T10:43:14.367Z,88.48
2022-09-24T10:44:14.310Z,87.66
2022-09-24T10:45:14.329Z,87.16
2022-09-24T10:46:14.382Z,88.07
2022-09-24T10:47:14.260Z,88.48
2022-09-24T10:48:14.239Z,87.93
2022-09-24T10:49:14.234Z,87.62
2022-09-24T10:50:14.226Z,86.85
2022-09-24T10:51:14.407Z,87.56
2022-09-24T10:52:14.251Z,88.07
2022-09-24T10:53:14.206Z,87.66
2022-09-24T10:54:14.212Z,88.98
2022-09-24T10:55:14.186Z,88.53
2022-09-24T10:56:14.179Z,89.04
2022-09-24T10:57:14.160Z,87.93
2022-09-24T10:58:14.203Z,86.61
2022-09-24T10:59:14.210Z,87.62
2022-09-24T11:00:14.149Z,87.22
2022-09-24T11:01:14.168Z,88.02
2022-09-24T11:02:14.145Z,88.39
2022-09-24T11:03:14.122Z,87.18
2022-09-24T11:04:14.068Z,86.41
2022-09-24T11:05:14.079Z,86.87
2022-09-24T11:06:14.155Z,86.67
2022-09-24T11:07:14.103Z,86.77
2022-09-24T11:08:14.044Z,86.27
2022-09-24T11:09:14.106Z,86.98
2022-09-24T11:10:14.042Z,87.88
2022-09-24T11:11:13.999Z,86.57
2022-09-24T11:12:14.012Z,86.98
2022-09-24T11:13:14.087Z,86.47
2022-09-24T11:14:14.007Z,85.76
2022-09-24T11:15:14.047Z,85.76
2022-09-24T11:16:14.047Z,85.76
2022-09-24T11:17:13.991Z,85.76
2022-09-24T11:18:13.912Z,86.07
2022-09-24T11:19:13.919Z,85.46
2022-09-24T11:20:13.904Z,85.56
2022-09-24T11:21:13.983Z,85.56
2022-09-24T11:22:13.939Z,84.85
2022-09-24T11:23:13.883Z,84.34
2022-09-24T11:24:13.884Z,84.55
2022-09-24T11:25:13.870Z,85.56
2022-09-24T11:26:14.512Z,86.16
2022-09-24T11:27:13.822Z,85.96
2022-09-24T11:28:13.842Z,84.65
2022-09-24T11:29:13.862Z,84.75
2022-09-24T11:30:13.797Z,83.44
2022-09-24T11:31:13.866Z,84.04
2022-09-24T11:32:13.861Z,84.85
2022-09-24T11:33:13.784Z,84.75
2022-09-24T11:34:13.736Z,83.33
2022-09-24T11:35:13.753Z,83.84
2022-09-24T11:36:13.828Z,84.25
2022-09-24T11:37:13.772Z,84.75
2022-09-24T11:38:13.782Z,85.31
2022-09-24T11:39:13.877Z,84.00
2022-09-24T11:40:13.945Z,83.29
2022-09-24T11:41:13.679Z,83.23
2022-09-24T11:42:13.635Z,84.95
2022-09-24T11:43:13.782Z,84.85
2022-09-24T11:44:13.720Z,84.81
2022-09-24T11:45:13.630Z,84.31
2022-09-24T11:46:13.674Z,84.25
2022-09-24T11:47:13.605Z,84.20
2022-09-24T11:48:13.589Z,84.14
2022-09-24T11:49:13.581Z,84.55
2022-09-24T11:50:13.598Z,84.81
2022-09-24T11:51:13.566Z,84.55
2022-09-24T11:52:13.594Z,85.05
2022-09-24T11:53:13.524Z,84.65
2022-09-24T11:54:13.526Z,85.16
2022-09-24T11:55:13.519Z,85.36
2022-09-24T11:56:13.749Z,84.55
2022-09-24T11:57:13.489Z,85.25
2022-09-24T11:58:13.509Z,85.76
2022-09-24T11:59:13.534Z,85.96
2022-09-24T12:00:13.473Z,85.76
2022-09-24T12:01:13.498Z,84.45
2022-09-24T12:02:13.470Z,84.04
2022-09-24T12:03:13.464Z,83.74
2022-09-24T12:04:13.390Z,84.04
2022-09-24T12:05:13.534Z,84.34
2022-09-24T12:06:13.434Z,84.04
2022-09-24T12:07:13.400Z,84.45
2022-09-24T12:08:13.349Z,84.25
2022-09-24T12:09:13.349Z,83.33
2022-09-24T12:10:13.353Z,83.88
2022-09-24T12:11:13.341Z,84.28
2022-09-24T12:12:13.310Z,85.30
2022-09-24T12:13:13.320Z,85.16
2022-09-24T12:14:13.346Z,84.65
2022-09-24T12:15:13.502Z,84.75
2022-09-24T12:16:13.374Z,84.14
2022-09-24T12:17:13.325Z,84.65
2022-09-24T12:18:13.321Z,85.05
2022-09-24T12:19:13.237Z,84.20
2022-09-24T12:20:13.213Z,83.80
2022-09-24T12:21:13.293Z,83.80
2022-09-24T12:22:13.241Z,83.90
2022-09-24T12:23:13.230Z,83.60
2022-09-24T12:24:13.320Z,83.80
2022-09-24T12:25:13.161Z,83.90
2022-09-24T12:26:13.154Z,84.41
2022-09-24T12:27:13.161Z,83.76
2022-09-24T12:28:13.153Z,82.24
2022-09-24T12:29:13.162Z,82.55
2022-09-24T12:30:13.200Z,82.55
2022-09-24T12:31:13.186Z,82.75
2022-09-24T12:32:13.276Z,81.94
2022-09-24T12:33:13.122Z,81.98
2022-09-24T12:34:13.075Z,83.56
2022-09-24T12:35:13.162Z,82.24
2022-09-24T12:36:13.115Z,81.03
2022-09-24T12:37:13.102Z,81.57
2022-09-24T12:38:13.053Z,81.78
2022-09-24T12:39:13.026Z,81.98
2022-09-24T12:40:13.042Z,81.37
2022-09-24T12:41:12.996Z,80.06
2022-09-24T12:42:13.062Z,80.60
2022-09-24T12:43:13.046Z,81.62
2022-09-24T12:44:14.481Z,81.51
2022-09-24T12:45:13.006Z,82.02
2022-09-24T12:46:12.992Z,83.44
2022-09-24T12:47:12.957Z,84.75
2022-09-24T12:48:13.006Z,84.75
2022-09-24T12:49:13.052Z,84.65
2022-09-24T12:50:12.898Z,84.85
2022-09-24T12:51:13.014Z,84.65
2022-09-24T12:52:13.806Z,84.65
2022-09-24T12:53:12.886Z,84.14